Agnew, Nebraska
Current Conditions -  °F | °C
As of 1:54 AM on Thursday 18 Dec 2014 (Local Time) from KLNK Reporting Station
Overcast Overcast  
Wind Chill: 22°   Ceiling: 7000
Heat Index: 27°   Visibility: 10mi
Dew Point: 19°   Wind: 5mph
Humidity: 72%   Direction: 110°ESE
Pressure: 30.23"   Gusts: NA
Location:  40.9964°N, 96.8004°W
Report Text: KLNK 180754Z AUTO 11004KT 10SM OVC070 M03/M07 A3023 RMK AO2 SLP251 T10281072
Loading
Personal Weather Stations






























Interactive Weather Map New forecast layout! Learn more

10-Day Weather Forecast

Advertisements
Track Severe Weather on mobile